KIPL

Imperial County Airport

Imperial, California, USA
METAR KIPL 250053Z AUTO 13011KT 10SM CLR 34/06 A2981 RMK AO2 SLP094 T03440056
Observed Flight Rules
May-25 @ 00:53 UTC (15 minutes ago) Visual Flight Rules
Wind Visibility Clouds
130° at 11 knots 10 miles
  • Clear skies
Temperatures Readings
Current 34°C / 93°F
Dewpoint 6°C / 43°F
Humidity 17%
Altimeter 29.81" Hg
Pressure 1009.4 hPa
Elevation -17
METAR KIPL 250053Z AUTO 13011KT 10SM CLR 34/06 A2981 RMK AO2 SLP094 T03440056
Observed Flight Rules
May-25 @ 00:53 UTC
(15 minutes ago)
VFR
Wind Visibility
130° at 11 knots 10 miles
Clouds
  • Clear skies
Temperature Dewpoint
34°C / 93°F 6°C / 43°F
Humidity Altimeter Pressure
17% 29.81" Hg 1009.4 hPa